Time;durP1;ratioP1;P1;durP2;ratioP2;P2;SDS_P1;SDS_P2;PMS_P1;PMS_P2;Temp;Humidity;BMP_temperature;BMP_pressure;BME280_temperature;BME280_humidity;BME280_pressure;Samples;Min_cycle;Max_cycle;Signal;HPM_P1;HPM_P2
2024/01/20 00:06:28;;;;;;;24.40;14.00;;;-1.20;99.90;;;;;;6026164;23;20548;-85
2024/01/20 00:36:45;;;;;;;27.57;15.00;;;-0.90;99.90;;;;;;5810279;24;20186;-85
2024/01/20 00:57:08;;;;;;;29.40;16.13;;;-0.90;99.90;;;;;;5813947;24;20157;-85
2024/01/20 01:27:32;;;;;;;30.33;17.07;;;-0.60;99.90;;;;;;5852168;24;20210;-85
2024/01/20 01:53:05;;;;;;;27.57;16.03;;;-0.20;99.90;;;;;;5878209;24;20414;-84
2024/01/20 02:18:25;;;;;;;29.03;16.30;;;0.00;99.90;;;;;;5861868;24;20205;-84
2024/01/20 02:38:34;;;;;;;31.23;17.87;;;0.20;99.90;;;;;;5741128;24;20195;-87
2024/01/20 03:03:59;;;;;;;25.13;15.17;;;0.50;99.90;;;;;;5752849;24;20875;-84
2024/01/20 03:34:41;;;;;;;25.30;14.50;;;0.60;99.90;;;;;;5735361;24;20209;-88
2024/01/20 04:20:16;;;;;;;19.07;12.13;;;0.40;99.90;;;;;;5661530;25;20269;-82
2024/01/20 04:50:36;;;;;;;21.67;12.30;;;0.10;99.90;;;;;;5746688;24;20210;-86
2024/01/20 05:15:53;;;;;;;22.27;12.50;;;-0.20;99.90;;;;;;5880271;24;20661;-86
2024/01/20 05:46:32;;;;;;;26.23;13.13;;;-0.40;99.90;;;;;;5857195;24;20199;-87
2024/01/20 06:06:42;;;;;;;28.83;15.13;;;-0.40;99.90;;;;;;5828753;24;20216;-87
2024/01/20 06:26:58;;;;;;;26.27;14.50;;;-0.20;99.90;;;;;;5823268;24;20638;-87
2024/01/20 06:52:31;;;;;;;24.67;13.90;;;-0.10;99.90;;;;;;5849950;24;20188;-87
2024/01/20 07:12:36;;;;;;;19.83;11.87;;;-0.10;99.90;;;;;;5579921;25;20286;-84
2024/01/20 07:38:13;;;;;;;26.10;15.57;;;0.20;99.90;;;;;;5733538;24;20257;-86
2024/01/20 07:58:32;;;;;;;22.27;14.10;;;0.40;99.90;;;;;;5833071;24;20218;-85
2024/01/20 08:28:55;;;;;;;21.93;11.43;;;0.40;99.90;;;;;;5944321;23;20464;-85
2024/01/20 08:59:33;;;;;;;22.03;12.07;;;0.50;99.90;;;;;;5804646;24;20213;-84
2024/01/20 09:24:36;;;;;;;21.73;12.47;;;0.60;99.90;;;;;;5662773;25;20543;-88
2024/01/20 09:40:08;;;;;;;18.33;10.87;;;0.80;99.90;;;;;;5739890;24;20184;-86
2024/01/20 10:00:26;;;;;;;17.23;11.93;;;0.90;99.90;;;;;;5758663;24;20219;-85
2024/01/20 10:20:47;;;;;;;19.23;12.77;;;1.10;99.90;;;;;;5657447;25;20281;-86
2024/01/20 10:50:37;;;;;;;21.93;13.93;;;1.60;99.90;;;;;;5883276;24;20221;-89
2024/01/20 11:11:34;;;;;;;16.67;10.77;;;1.40;99.60;;;;;;5829241;24;20273;-83
2024/01/20 11:15:55;;;;;;;16.77;12.17;;;1.30;99.90;;;;;;5763300;24;20969;-84
2024/01/20 11:42:03;;;;;;;20.03;13.90;;;1.10;99.90;;;;;;5964620;23;20193;-86
2024/01/20 11:46:23;;;;;;;24.83;13.43;;;1.10;99.90;;;;;;5846116;24;20516;-85
2024/01/20 12:07:13;;;;;;;20.00;11.70;;;1.60;98.50;;;;;;5794658;24;20197;-83
2024/01/20 12:42:54;;;;;;;19.03;13.20;;;2.20;94.90;;;;;;5984148;23;20187;-85
2024/01/20 13:13:21;;;;;;;23.37;13.07;;;1.40;99.90;;;;;;5908384;24;20219;-84
2024/01/20 13:33:39;;;;;;;17.37;12.00;;;1.40;99.90;;;;;;5800175;24;20185;-87
2024/01/20 14:24:22;;;;;;;31.27;17.73;;;0.40;99.90;;;;;;5821387;24;20194;-84
2024/01/20 15:10:04;;;;;;;30.30;18.23;;;0.10;99.90;;;;;;5713963;24;20215;-85
2024/01/20 15:34:59;;;;;;;34.30;18.30;;;0.20;99.90;;;;;;5844459;24;20920;-85
2024/01/20 15:55:31;;;;;;;36.00;19.27;;;0.30;99.90;;;;;;5693451;24;20204;-83
2024/01/20 16:41:01;;;;;;;35.57;20.77;;;0.50;99.90;;;;;;5750017;24;20392;-86
2024/01/20 17:26:54;;;;;;;28.53;12.40;;;0.90;99.90;;;;;;5582994;25;20201;-83
2024/01/20 18:22:48;;;;;;;34.67;18.43;;;1.10;99.90;;;;;;5810946;24;20244;-86
2024/01/20 18:47:56;;;;;;;40.80;22.37;;;1.20;99.90;;;;;;5873128;24;20193;-83
2024/01/20 19:08:27;;;;;;;34.00;20.37;;;1.20;99.90;;;;;;5830001;24;20177;-83
2024/01/20 20:14:01;;;;;;;39.03;20.10;;;1.40;99.90;;;;;;5801773;24;20250;-82
2024/01/20 20:39:38;;;;;;;26.67;18.37;;;1.70;99.90;;;;;;5714275;24;20587;-83
2024/01/20 21:09:30;;;;;;;26.40;17.07;;;1.80;99.90;;;;;;5747872;24;20197;-83
2024/01/20 21:35:14;;;;;;;29.10;17.67;;;1.70;99.90;;;;;;5796428;24;20180;-82
2024/01/20 21:55:47;;;;;;;29.43;17.67;;;1.70;99.90;;;;;;5931077;23;20301;-85
2024/01/20 22:26:17;;;;;;;28.83;18.20;;;1.60;99.90;;;;;;5841485;24;20172;-84
2024/01/20 22:51:41;;;;;;;28.67;18.03;;;1.60;99.90;;;;;;5902479;24;20774;-82
2024/01/20 23:12:01;;;;;;;22.57;14.60;;;1.80;99.90;;;;;;5561441;25;20664;-82
2024/01/20 23:16:20;;;;;;;22.63;14.73;;;1.80;99.90;;;;;;5585889;25;20639;-80
2024/01/20 23:37:16;;;;;;;13.07;8.40;;;1.60;99.90;;;;;;5747144;24;20663;-82
